createdAt,value
2023-02-18T00:00:20.914Z,100351.25
2023-02-18T00:02:47.314Z,100342.69
2023-02-18T00:05:14.664Z,100334.94
2023-02-18T00:07:41.511Z,100337.16
2023-02-18T00:10:11.593Z,100342.44
2023-02-18T00:12:38.585Z,100346.16
2023-02-18T00:15:05.303Z,100344.34
2023-02-18T00:17:31.602Z,100340.88
2023-02-18T00:19:58.133Z,100357.16
2023-02-18T00:22:25.202Z,100364.34
2023-02-18T00:24:51.687Z,100355.59
2023-02-18T00:27:18.258Z,100351.13
2023-02-18T00:29:44.596Z,100349.44
2023-02-18T00:32:11.229Z,100354.72
2023-02-18T00:34:37.644Z,100361.81
2023-02-18T00:37:04.704Z,100353.78
2023-02-18T00:39:31.845Z,100360.75
2023-02-18T00:41:58.273Z,100355.91
2023-02-18T00:44:25.728Z,100367.09
2023-02-18T00:46:53.217Z,100372.28
2023-02-18T00:49:19.527Z,100360.94
2023-02-18T00:51:45.981Z,100361.63
2023-02-18T00:54:12.456Z,100361.91
2023-02-18T00:56:38.756Z,100352.06
2023-02-18T00:59:05.079Z,100351.75
2023-02-18T01:01:31.503Z,100347.13
2023-02-18T01:03:57.901Z,100339.50
2023-02-18T01:06:24.219Z,100346.41
2023-02-18T01:08:50.696Z,100341.31
2023-02-18T01:11:17.199Z,100337.91
2023-02-18T01:13:43.546Z,100323.19
2023-02-18T01:16:10.897Z,100338.34
2023-02-18T01:18:38.845Z,100343.19
2023-02-18T01:21:08.359Z,100356.41
2023-02-18T01:23:38.278Z,100353.97
2023-02-18T01:26:05.742Z,100329.47
2023-02-18T01:28:32.338Z,100316.34
2023-02-18T01:31:04.401Z,100310.00
2023-02-18T01:33:31.558Z,100322.25
2023-02-18T01:36:00.759Z,100310.09
2023-02-18T01:38:27.079Z,100309.47
2023-02-18T01:40:54.108Z,100304.31
2023-02-18T01:43:22.347Z,100305.75
2023-02-18T01:45:58.548Z,100299.00
2023-02-18T01:48:39.800Z,100307.22
2023-02-18T01:51:32.664Z,100304.59
2023-02-18T01:54:04.909Z,100298.03
2023-02-18T01:56:40.097Z,100291.91
2023-02-18T01:59:12.127Z,100296.88
2023-02-18T02:01:41.746Z,100297.41
2023-02-18T02:04:08.219Z,100304.06
2023-02-18T02:06:34.601Z,100294.38
2023-02-18T02:09:03.773Z,100299.66
2023-02-18T02:11:57.790Z,100285.88
2023-02-18T02:14:45.690Z,100290.97
2023-02-18T02:17:44.403Z,100288.97
2023-02-18T02:20:44.423Z,100280.59
2023-02-18T02:23:41.950Z,100277.22
2023-02-18T02:26:45.849Z,100264.88
2023-02-18T02:29:45.631Z,100257.13
2023-02-18T02:32:54.239Z,100254.81
2023-02-18T02:35:26.307Z,100266.31
2023-02-18T02:38:01.751Z,100250.16
2023-02-18T02:40:54.747Z,100252.16
2023-02-18T02:43:34.752Z,100253.31
2023-02-18T02:46:19.448Z,100247.50
2023-02-18T02:48:59.610Z,100258.09
2023-02-18T02:51:42.047Z,100255.56
2023-02-18T02:54:20.917Z,100243.94
2023-02-18T02:56:48.102Z,100258.19
2023-02-18T02:59:27.877Z,100247.72
2023-02-18T03:02:16.920Z,100239.78
2023-02-18T03:04:49.069Z,100239.69
2023-02-18T03:07:52.762Z,100242.34
2023-02-18T03:10:39.405Z,100238.00
2023-02-18T03:13:50.192Z,100230.09
2023-02-18T03:16:26.034Z,100234.41
2023-02-18T03:19:05.093Z,100243.38
2023-02-18T03:21:36.692Z,100240.84
2023-02-18T03:24:08.449Z,100237.91
2023-02-18T03:26:39.954Z,100235.78
2023-02-18T03:29:08.634Z,100225.94
2023-02-18T03:31:38.848Z,100233.03
2023-02-18T03:34:12.080Z,100229.53
2023-02-18T03:36:39.890Z,100223.44
2023-02-18T03:39:14.924Z,100224.56
2023-02-18T03:41:41.808Z,100223.06
2023-02-18T03:44:10.437Z,100213.56
2023-02-18T03:46:40.252Z,100217.19
2023-02-18T03:49:06.840Z,100222.47
2023-02-18T03:51:33.369Z,100207.66
2023-02-18T03:53:59.729Z,100208.41
2023-02-18T03:56:26.170Z,100206.91
2023-02-18T03:58:52.551Z,100198.16
2023-02-18T04:01:18.933Z,100213.16
2023-02-18T04:03:45.294Z,100215.38
2023-02-18T04:06:11.709Z,100199.63
2023-02-18T04:08:38.049Z,100204.69
2023-02-18T04:11:05.356Z,100200.47
2023-02-18T04:13:32.230Z,100191.81
2023-02-18T04:15:58.554Z,100202.06
2023-02-18T04:18:24.899Z,100194.88
2023-02-18T04:20:51.629Z,100194.88
2023-02-18T04:23:17.935Z,100193.06
2023-02-18T04:25:44.297Z,100196.22
2023-02-18T04:28:13.247Z,100196.66
2023-02-18T04:30:39.991Z,100192.66
2023-02-18T04:33:06.440Z,100192.66
2023-02-18T04:35:32.728Z,100177.53
2023-02-18T04:37:59.053Z,100181.47
2023-02-18T04:40:26.588Z,100178.38
2023-02-18T04:42:52.885Z,100165.72
2023-02-18T04:45:19.197Z,100166.78
2023-02-18T04:47:45.574Z,100154.06
2023-02-18T04:50:11.967Z,100154.41
2023-02-18T04:52:38.341Z,100157.69
2023-02-18T04:55:04.956Z,100149.44
2023-02-18T04:57:31.260Z,100149.66
2023-02-18T04:59:57.601Z,100148.38
2023-02-18T05:02:23.993Z,100147.13
2023-02-18T05:04:50.352Z,100162.13
2023-02-18T05:07:16.832Z,100144.50
2023-02-18T05:09:43.141Z,100136.44
2023-02-18T05:12:09.449Z,100141.19
2023-02-18T05:14:35.758Z,100137.59
2023-02-18T05:17:02.104Z,100134.53
2023-02-18T05:19:28.651Z,100138.97
2023-02-18T05:21:54.967Z,100129.06
2023-02-18T05:24:21.267Z,100124.38
2023-02-18T05:26:47.608Z,100130.22
2023-02-18T05:29:13.907Z,100140.88
2023-02-18T05:31:40.464Z,100124.19
2023-02-18T05:34:06.906Z,100126.94
2023-02-18T05:36:33.260Z,100114.69
2023-02-18T05:38:59.595Z,100122.06
2023-02-18T05:41:25.927Z,100130.31
2023-02-18T05:44:10.959Z,100125.34
2023-02-18T05:46:37.447Z,100113.00
2023-02-18T05:49:03.841Z,100107.38
2023-02-18T05:51:30.202Z,100101.16
2023-02-18T05:53:56.637Z,100108.22
2023-02-18T05:56:23.038Z,100114.78
2023-02-18T05:58:49.413Z,100109.91
2023-02-18T06:01:15.939Z,100099.25
2023-02-18T06:03:42.261Z,100097.34
2023-02-18T06:06:08.970Z,100095.00
2023-02-18T06:08:35.550Z,100093.09
2023-02-18T06:11:02.165Z,100087.00
2023-02-18T06:13:28.566Z,100081.09
2023-02-18T06:15:55.064Z,100086.25
2023-02-18T06:18:22.002Z,100088.03
2023-02-18T06:20:49.331Z,100082.75
2023-02-18T06:23:16.146Z,100077.91
2023-02-18T06:25:42.821Z,100084.69
2023-02-18T06:28:09.388Z,100086.78
2023-02-18T06:30:35.818Z,100069.88
2023-02-18T06:33:04.460Z,100084.69
2023-02-18T06:35:30.891Z,100086.38
2023-02-18T06:37:57.179Z,100077.47
2023-02-18T06:40:23.478Z,100073.78
2023-02-18T06:42:49.798Z,100071.16
2023-02-18T06:45:16.158Z,100074.31
2023-02-18T06:47:42.620Z,100071.34
2023-02-18T06:50:09.261Z,100061.31
2023-02-18T06:52:37.859Z,100075.19
2023-02-18T06:55:09.296Z,100064.81
2023-02-18T06:57:35.760Z,100055.84
2023-02-18T07:00:02.070Z,100060.28
2023-02-18T07:02:28.434Z,100050.88
2023-02-18T07:04:54.908Z,100048.56
2023-02-18T07:07:21.317Z,100070.31
2023-02-18T07:09:47.693Z,100059.75
2023-02-18T07:12:14.048Z,100068.22
2023-02-18T07:14:40.412Z,100076.34
2023-02-18T07:17:06.710Z,100073.69
2023-02-18T07:19:32.997Z,100062.81
2023-02-18T07:22:00.189Z,100065.34
2023-02-18T07:24:26.507Z,100075.28
2023-02-18T07:26:52.872Z,100064.50
2023-02-18T07:29:19.189Z,100063.13
2023-02-18T07:31:45.590Z,100069.78
2023-02-18T07:34:11.948Z,100060.78
2023-02-18T07:36:38.396Z,100069.88
2023-02-18T07:39:04.952Z,100070.63
2023-02-18T07:41:31.418Z,100076.97
2023-02-18T07:43:57.732Z,100059.31
2023-02-18T07:46:24.152Z,100056.78
2023-02-18T07:48:50.452Z,100049.81
2023-02-18T07:51:16.832Z,100059.72
2023-02-18T07:53:43.156Z,100050.34
2023-02-18T07:56:09.932Z,100046.50
2023-02-18T07:58:38.404Z,100050.34
2023-02-18T08:01:14.469Z,100054.97
2023-02-18T08:03:41.555Z,100062.47
2023-02-18T08:06:08.697Z,100069.66
2023-02-18T08:08:37.121Z,100055.84
2023-02-18T08:11:13.439Z,100070.53
2023-02-18T08:13:46.965Z,100079.56
2023-02-18T08:16:13.721Z,100074.94
2023-02-18T08:18:40.044Z,100076.09
2023-02-18T08:21:06.433Z,100087.09
2023-02-18T08:23:32.937Z,100094.59
2023-02-18T08:25:59.365Z,100077.78
2023-02-18T08:28:26.696Z,100095.34
2023-02-18T08:30:54.867Z,100093.53
2023-02-18T08:33:22.494Z,100079.91
2023-02-18T08:35:50.252Z,100074.94
2023-02-18T08:38:16.916Z,100078.41
2023-02-18T08:40:43.587Z,100082.63
2023-02-18T08:43:10.381Z,100100.91
2023-02-18T08:45:40.727Z,100087.16
2023-02-18T08:48:18.912Z,100083.16
2023-02-18T08:50:47.277Z,100100.91
2023-02-18T08:53:13.631Z,100093.09
2023-02-18T08:55:41.422Z,100100.09
2023-02-18T08:58:08.137Z,100079.97
2023-02-18T09:00:35.418Z,100086.75
2023-02-18T09:03:01.787Z,100096.25
2023-02-18T09:05:29.444Z,100101.66
2023-02-18T09:07:55.943Z,100093.53
2023-02-18T09:10:22.581Z,100090.56
2023-02-18T09:12:48.987Z,100093.94
2023-02-18T09:15:15.308Z,100081.91
2023-02-18T09:17:41.645Z,100104.72
2023-02-18T09:20:08.588Z,100101.94
2023-02-18T09:22:34.984Z,100111.06
2023-02-18T09:25:01.463Z,100118.34
2023-02-18T09:27:27.857Z,100121.09
2023-02-18T09:29:54.221Z,100118.56
2023-02-18T09:32:33.564Z,100130.31
2023-02-18T09:35:00.339Z,100113.63
2023-02-18T09:37:28.750Z,100104.22
2023-02-18T09:39:55.177Z,100130.72
2023-02-18T09:42:28.017Z,100135.19
2023-02-18T09:44:59.362Z,100130.94
2023-02-18T09:47:34.888Z,100139.19
2023-02-18T09:50:11.357Z,100137.41
2023-02-18T09:52:39.161Z,100126.91
2023-02-18T09:55:27.318Z,100126.72
2023-02-18T09:58:15.145Z,100126.50
2023-02-18T10:00:44.507Z,100116.44
2023-02-18T10:03:17.941Z,100103.56
2023-02-18T10:06:05.410Z,100123.09
2023-02-18T10:08:50.516Z,100106.59
2023-02-18T10:11:41.871Z,100120.69
2023-02-18T10:14:12.140Z,100120.44
2023-02-18T10:16:38.840Z,100107.88
2023-02-18T10:19:19.944Z,100109.38
2023-02-18T10:21:47.962Z,100116.44
2023-02-18T10:24:32.134Z,100107.47
2023-02-18T10:26:59.272Z,100103.22
2023-02-18T10:29:26.661Z,100109.25
2023-02-18T10:31:59.172Z,100098.63
2023-02-18T10:34:41.469Z,100104.38
2023-02-18T10:37:32.743Z,100109.63
2023-02-18T10:40:25.576Z,100105.19
2023-02-18T10:43:03.663Z,100096.41
2023-02-18T10:45:56.221Z,100083.31
2023-02-18T10:48:44.066Z,100086.50
2023-02-18T10:51:23.477Z,100098.94
2023-02-18T10:53:52.880Z,100085.69
2023-02-18T10:56:40.620Z,100092.13
2023-02-18T10:59:25.710Z,100074.88
2023-02-18T11:01:59.237Z,100077.75
2023-02-18T11:04:35.569Z,100073.75
2023-02-18T11:07:12.286Z,100084.50
2023-02-18T11:10:19.446Z,100079.88
2023-02-18T11:12:49.967Z,100070.56
2023-02-18T11:15:23.480Z,100071.84
2023-02-18T11:17:52.515Z,100063.09
2023-02-18T11:20:28.271Z,100040.25
2023-02-18T11:23:13.230Z,100059.50
2023-02-18T11:25:41.957Z,100056.44
2023-02-18T11:28:17.380Z,100041.75
2023-02-18T11:30:46.918Z,100034.03
2023-02-18T11:33:20.803Z,100042.50
2023-02-18T11:35:58.461Z,100029.06
2023-02-18T11:38:46.283Z,100007.91
2023-02-18T11:41:19.989Z,100006.94
2023-02-18T11:43:49.119Z,100011.56
2023-02-18T11:46:27.076Z,100014.06
2023-02-18T11:48:54.231Z,99997.81
2023-02-18T11:51:27.719Z,99998.22
2023-02-18T11:54:05.757Z,100009.53
2023-02-18T11:56:35.257Z,100010.38
2023-02-18T11:59:03.892Z,100008.22
2023-02-18T12:01:51.016Z,99995.84
2023-02-18T12:04:19.816Z,100005.94
2023-02-18T12:06:53.301Z,100009.53
2023-02-18T12:09:26.340Z,100025.28
2023-02-18T12:11:58.587Z,100025.50
2023-02-18T12:14:26.469Z,100033.59
2023-02-18T12:17:26.444Z,100033.94
2023-02-18T12:20:03.146Z,100009.13
2023-02-18T12:22:38.162Z,100009.81
2023-02-18T12:25:37.370Z,100006.72
2023-02-18T12:28:24.986Z,100017.72
2023-02-18T12:31:17.530Z,100018.91
2023-02-18T12:33:59.057Z,100022.06
2023-02-18T12:36:50.497Z,100010.00
2023-02-18T12:39:22.784Z,100021.94
2023-02-18T12:42:08.737Z,100028.31
2023-02-18T12:45:08.903Z,100028.09
2023-02-18T12:47:47.755Z,100035.25
2023-02-18T12:50:34.029Z,100019.88
2023-02-18T12:53:12.934Z,100032.38
2023-02-18T12:56:23.434Z,100030.91
2023-02-18T12:59:27.112Z,100043.41
2023-02-18T13:02:01.690Z,100036.22
2023-02-18T13:04:48.261Z,100034.91
2023-02-18T13:07:35.266Z,100035.06
2023-02-18T13:10:28.029Z,100021.31
2023-02-18T13:13:08.577Z,100027.97
2023-02-18T13:15:55.612Z,100029.56
2023-02-18T13:18:28.687Z,100028.81
2023-02-18T13:20:59.107Z,100029.97
2023-02-18T13:23:34.143Z,100021.81
2023-02-18T13:26:04.866Z,100029.25
2023-02-18T13:28:40.619Z,100032.25
2023-02-18T13:31:32.289Z,100025.59
2023-02-18T13:34:03.704Z,100030.00
2023-02-18T13:36:36.988Z,100032.28
2023-02-18T13:39:05.826Z,100021.69
2023-02-18T13:41:38.906Z,100032.91
2023-02-18T13:44:20.589Z,100034.09
2023-02-18T13:46:56.420Z,100044.91
2023-02-18T13:49:41.172Z,100042.03
2023-02-18T13:52:20.026Z,100036.72
2023-02-18T13:54:47.752Z,100026.91
2023-02-18T13:57:19.208Z,100039.28
2023-02-18T13:59:49.539Z,100042.19
2023-02-18T14:02:32.497Z,100043.28
2023-02-18T14:05:11.232Z,100034.19
2023-02-18T14:07:46.616Z,100025.50
2023-02-18T14:10:12.884Z,100030.34
2023-02-18T14:13:03.993Z,100026.34
2023-02-18T14:15:30.293Z,100024.56
2023-02-18T14:18:02.604Z,100024.25
2023-02-18T14:20:37.948Z,100028.81
2023-02-18T14:23:22.715Z,100022.50
2023-02-18T14:25:57.493Z,100026.09
2023-02-18T14:28:47.106Z,100021.78
2023-02-18T14:31:13.908Z,100027.44
2023-02-18T14:33:47.517Z,100022.22
2023-02-18T14:36:55.550Z,100031.50
2023-02-18T14:39:43.501Z,100018.81
2023-02-18T14:42:42.476Z,100016.09
2023-02-18T14:45:31.403Z,100014.00
2023-02-18T14:48:38.755Z,100022.22
2023-02-18T14:51:05.642Z,100011.13
2023-02-18T14:53:39.860Z,100018.63
2023-02-18T14:56:11.259Z,100018.41
2023-02-18T14:58:41.077Z,100016.22
2023-02-18T15:01:18.445Z,100016.22
2023-02-18T15:03:44.786Z,100016.03
2023-02-18T15:06:32.080Z,100013.78
2023-02-18T15:08:59.950Z,100027.53
2023-02-18T15:11:36.868Z,100024.56
2023-02-18T15:14:10.784Z,100030.31
2023-02-18T15:16:38.306Z,100016.16
2023-02-18T15:19:07.817Z,100012.09
2023-02-18T15:21:41.971Z,100016.22
2023-02-18T15:24:31.443Z,100016.94
2023-02-18T15:27:04.010Z,100010.13
2023-02-18T15:29:35.018Z,100019.13
2023-02-18T15:32:14.987Z,100011.47
2023-02-18T15:34:43.976Z,100013.38
2023-02-18T15:37:14.891Z,100015.47
2023-02-18T15:39:42.582Z,100014.50
2023-02-18T15:42:24.546Z,100003.16
2023-02-18T15:44:55.916Z,100011.69
2023-02-18T15:47:23.517Z,100006.84
2023-02-18T15:49:56.764Z,100014.44
2023-02-18T15:52:26.400Z,100000.09
2023-02-18T15:54:53.308Z,100011.06
2023-02-18T15:57:23.710Z,100009.28
2023-02-18T16:00:34.774Z,100011.81
2023-02-18T16:03:20.092Z,100004.41
2023-02-18T16:05:47.274Z,100007.88
2023-02-18T16:08:16.716Z,99996.63
2023-02-18T16:10:53.538Z,99997.66
2023-02-18T16:13:20.190Z,99998.88
2023-02-18T16:15:49.368Z,100005.38
2023-02-18T16:18:42.210Z,100007.06
2023-02-18T16:21:17.402Z,99999.28
2023-02-18T16:23:54.264Z,99994.19
2023-02-18T16:26:28.217Z,99997.38
2023-02-18T16:28:55.392Z,100010.19
2023-02-18T16:31:21.961Z,100012.91
2023-02-18T16:33:49.479Z,100027.59
2023-02-18T16:36:16.832Z,100009.19
2023-02-18T16:38:45.077Z,100000.97
2023-02-18T16:41:14.406Z,100018.72
2023-02-18T16:43:41.651Z,100014.63
2023-02-18T16:46:14.034Z,100018.63
2023-02-18T16:48:43.013Z,100023.59
2023-02-18T16:51:30.690Z,100014.53
2023-02-18T16:53:57.213Z,100016.53
2023-02-18T16:56:32.280Z,100028.34
2023-02-18T16:58:59.279Z,100024.78
2023-02-18T17:01:28.898Z,100030.50
2023-02-18T17:03:56.509Z,100033.53
2023-02-18T17:06:23.007Z,100034.56
2023-02-18T17:08:49.950Z,100035.66
2023-02-18T17:11:20.682Z,100032.56
2023-02-18T17:13:48.807Z,100035.31
2023-02-18T17:16:16.206Z,100035.66
2023-02-18T17:18:43.712Z,100040.94
2023-02-18T17:21:14.946Z,100045.75
2023-02-18T17:23:42.252Z,100042.22
2023-02-18T17:26:34.948Z,100042.16
2023-02-18T17:29:01.514Z,100041.97
2023-02-18T17:31:30.898Z,100042.09
2023-02-18T17:34:01.083Z,100049.41
2023-02-18T17:36:27.620Z,100053.94
2023-02-18T17:38:54.038Z,100065.66
2023-02-18T17:41:20.508Z,100059.53
2023-02-18T17:43:46.842Z,100063.34
2023-02-18T17:46:15.950Z,100068.63
2023-02-18T17:48:43.136Z,100056.16
2023-02-18T17:51:39.190Z,100061.84
2023-02-18T17:54:18.643Z,100059.84
2023-02-18T17:56:45.388Z,100060.59
2023-02-18T17:59:11.755Z,100064.59
2023-02-18T18:01:38.766Z,100068.19
2023-02-18T18:04:12.816Z,100068.19
2023-02-18T18:06:39.248Z,100061.03
2023-02-18T18:09:05.578Z,100066.59
2023-02-18T18:11:32.742Z,100064.59
2023-02-18T18:13:59.589Z,100074.84
2023-02-18T18:16:26.604Z,100079.19
2023-02-18T18:18:52.993Z,100073.56
2023-02-18T18:21:22.797Z,100072.41
2023-02-18T18:23:49.950Z,100083.94
2023-02-18T18:26:16.317Z,100078.56
2023-02-18T18:28:42.828Z,100090.69
2023-02-18T18:31:14.843Z,100087.75
2023-02-18T18:33:41.726Z,100095.88
2023-02-18T18:36:08.439Z,100094.81
2023-02-18T18:38:35.074Z,100089.53
2023-02-18T18:41:01.416Z,100079.72
2023-02-18T18:43:33.271Z,100095.53
2023-02-18T18:46:00.007Z,100094.28
2023-02-18T18:48:26.761Z,100094.81
2023-02-18T18:50:53.594Z,100081.81
2023-02-18T18:53:24.481Z,100096.19
2023-02-18T18:55:56.118Z,100100.22
2023-02-18T18:58:24.432Z,100093.78
2023-02-18T19:00:57.064Z,100093.31
2023-02-18T19:03:24.850Z,100089.97
2023-02-18T19:05:52.141Z,100090.19
2023-02-18T19:08:21.859Z,100088.38
2023-02-18T19:10:51.365Z,100090.91
2023-02-18T19:13:21.453Z,100089.97
2023-02-18T19:15:48.842Z,100082.13
2023-02-18T19:18:17.375Z,100094.81
2023-02-18T19:20:45.239Z,100085.66
2023-02-18T19:23:11.810Z,100096.50
2023-02-18T19:25:39.259Z,100074.00
2023-02-18T19:28:05.978Z,100087.75
2023-02-18T19:30:35.073Z,100081.94
2023-02-18T19:33:03.395Z,100081.50
2023-02-18T19:35:30.671Z,100085.94
2023-02-18T19:37:57.620Z,100077.31
2023-02-18T19:40:26.628Z,100084.47
2023-02-18T19:42:53.647Z,100075.50
2023-02-18T19:45:20.841Z,100073.06
2023-02-18T19:47:47.564Z,100086.16
2023-02-18T19:50:15.671Z,100074.00
2023-02-18T19:52:42.148Z,100067.88
2023-02-18T19:55:09.834Z,100069.16
2023-02-18T19:57:36.610Z,100076.56
2023-02-18T20:00:08.277Z,100070.50
2023-02-18T20:02:39.453Z,100068.31
2023-02-18T20:05:07.459Z,100058.50
2023-02-18T20:07:36.059Z,100064.28
2023-02-18T20:10:03.971Z,100067.16
2023-02-18T20:12:30.406Z,100058.91
2023-02-18T20:14:56.765Z,100061.34
2023-02-18T20:17:23.134Z,100058.59
2023-02-18T20:19:49.448Z,100072.44
2023-02-18T20:22:15.845Z,100058.28
2023-02-18T20:24:42.362Z,100048.88
2023-02-18T20:27:09.939Z,100052.78
2023-02-18T20:29:36.836Z,100055.66
2023-02-18T20:32:05.211Z,100044.53
2023-02-18T20:34:32.859Z,100049.63
2023-02-18T20:37:00.092Z,100043.06
2023-02-18T20:39:27.178Z,100044.00
2023-02-18T20:41:53.709Z,100044.56
2023-02-18T20:44:21.142Z,100027.13
2023-02-18T20:46:50.740Z,100036.94
2023-02-18T20:49:18.919Z,100026.81
2023-02-18T20:51:45.800Z,100027.75
2023-02-18T20:54:15.663Z,100032.19
2023-02-18T20:56:43.681Z,100029.78
2023-02-18T20:59:14.224Z,100022.16
2023-02-18T21:01:41.788Z,100016.16
2023-02-18T21:04:10.629Z,100025.31
2023-02-18T21:06:36.957Z,100025.94
2023-02-18T21:09:03.826Z,100011.72
2023-02-18T21:11:30.133Z,100015.91
2023-02-18T21:13:57.677Z,100008.53
2023-02-18T21:16:26.583Z,100017.31
2023-02-18T21:18:53.304Z,100014.47
2023-02-18T21:21:20.233Z,100014.22
2023-02-18T21:23:46.779Z,100014.97
2023-02-18T21:26:18.945Z,100015.84
2023-02-18T21:28:50.142Z,100016.66
2023-02-18T21:31:16.535Z,100014.03
2023-02-18T21:33:42.950Z,100010.75
2023-02-18T21:36:09.411Z,100003.03
2023-02-18T21:38:35.696Z,100009.28
2023-02-18T21:41:04.431Z,99992.59
2023-02-18T21:43:30.739Z,99979.91
2023-02-18T21:46:06.160Z,99983.53
2023-02-18T21:48:51.256Z,99992.47
2023-02-18T21:51:37.523Z,99985.41
2023-02-18T21:54:03.886Z,99977.59
2023-02-18T21:56:30.194Z,99978.00
2023-02-18T21:58:56.506Z,99974.00
2023-02-18T22:01:22.949Z,99980.56
2023-02-18T22:03:49.280Z,99976.13
2023-02-18T22:06:15.587Z,99960.72
2023-02-18T22:08:41.959Z,99971.56
2023-02-18T22:11:08.643Z,99953.09
2023-02-18T22:13:35.255Z,99974.34
2023-02-18T22:16:01.596Z,99967.25
2023-02-18T22:18:31.482Z,99969.06
2023-02-18T22:20:58.440Z,99963.00
2023-02-18T22:23:25.093Z,99960.47
2023-02-18T22:25:52.202Z,99963.84
2023-02-18T22:28:19.052Z,99962.25
2023-02-18T22:30:45.365Z,99953.50
2023-02-18T22:33:11.695Z,99968.19
2023-02-18T22:35:37.993Z,99956.47
2023-02-18T22:38:04.298Z,99944.22
2023-02-18T22:40:30.637Z,99956.25
2023-02-18T22:42:56.929Z,99939.78
2023-02-18T22:45:23.293Z,99953.91
2023-02-18T22:47:49.597Z,99943.69
2023-02-18T22:50:16.733Z,99940.84
2023-02-18T22:52:43.117Z,99937.88
2023-02-18T22:55:09.396Z,99946.00
2023-02-18T22:57:35.771Z,99931.03
2023-02-18T23:00:02.068Z,99940.84
2023-02-18T23:02:28.392Z,99934.31
2023-02-18T23:04:54.674Z,99942.00
2023-02-18T23:07:24.301Z,99943.28
2023-02-18T23:09:50.592Z,99939.91
2023-02-18T23:12:17.819Z,99932.00
2023-02-18T23:14:44.150Z,99937.91
2023-02-18T23:17:13.403Z,99923.75
2023-02-18T23:19:42.349Z,99931.03
2023-02-18T23:22:10.928Z,99930.41
2023-02-18T23:24:39.994Z,99921.22
2023-02-18T23:27:08.603Z,99922.81
2023-02-18T23:29:34.930Z,99920.78
2023-02-18T23:32:02.032Z,99917.19
2023-02-18T23:34:28.808Z,99920.19
2023-02-18T23:36:55.753Z,99911.41
2023-02-18T23:39:22.795Z,99917.53
2023-02-18T23:41:50.903Z,99905.03
2023-02-18T23:44:22.067Z,99916.13
2023-02-18T23:46:48.364Z,99911.06
2023-02-18T23:49:16.067Z,99901.03
2023-02-18T23:51:43.186Z,99895.84
2023-02-18T23:54:10.334Z,99885.53
2023-02-18T23:56:36.827Z,99899.06
2023-02-18T23:59:04.412Z,99895.00
